createdAt,value
2023-12-13T00:01:27.461Z,96200.41
2023-12-13T00:03:55.077Z,96195.78
2023-12-13T00:06:22.494Z,96193.41
2023-12-13T00:08:50.309Z,96192.63
2023-12-13T00:11:19.161Z,96191.50
2023-12-13T00:13:46.990Z,96196.91
2023-12-13T00:16:14.709Z,96195.78
2023-12-13T00:18:42.386Z,96197.38
2023-12-13T00:21:10.508Z,96202.78
2023-12-13T00:23:37.942Z,96208.19
2023-12-13T00:26:05.740Z,96202.78
2023-12-13T00:28:36.119Z,96197.38
2023-12-13T00:31:03.736Z,96188.78
2023-12-13T00:33:31.216Z,96186.88
2023-12-13T00:35:58.942Z,96187.22
2023-12-13T00:38:26.539Z,96186.09
2023-12-13T00:40:53.813Z,96186.09
2023-12-13T00:43:22.720Z,96177.19
2023-12-13T00:45:51.581Z,96172.09
2023-12-13T00:48:19.373Z,96184.03
2023-12-13T00:50:46.934Z,96182.13
2023-12-13T00:53:14.402Z,96177.50
2023-12-13T00:55:42.867Z,96168.59
2023-12-13T00:58:10.357Z,96176.72
2023-12-13T01:00:38.131Z,96174.34
2023-12-13T01:03:06.985Z,96183.25
2023-12-13T01:05:34.538Z,96175.47
2023-12-13T01:08:01.951Z,96171.19
2023-12-13T01:10:29.520Z,96178.50
2023-12-13T01:12:57.029Z,96177.69
2023-12-13T01:15:24.523Z,96170.38
2023-12-13T01:17:52.009Z,96170.69
2023-12-13T01:20:20.817Z,96164.50
2023-12-13T01:22:48.277Z,96176.59
2023-12-13T01:25:16.020Z,96179.28
2023-12-13T01:27:43.892Z,96175.47
2023-12-13T01:30:11.688Z,96171.63
2023-12-13T01:32:39.349Z,96174.66
2023-12-13T01:35:07.648Z,96181.69
2023-12-13T01:37:36.718Z,96171.63
2023-12-13T01:40:06.611Z,96168.16
2023-12-13T01:42:34.123Z,96164.66
2023-12-13T01:45:01.770Z,96170.06
2023-12-13T01:47:29.440Z,96175.47
2023-12-13T01:49:56.792Z,96173.09
2023-12-13T01:52:24.681Z,96165.78
2023-12-13T01:54:53.728Z,96173.09
2023-12-13T01:57:21.654Z,96173.88
2023-12-13T01:59:49.323Z,96178.50
2023-12-13T02:02:16.645Z,96175.31
2023-12-13T02:04:45.916Z,96166.88
2023-12-13T02:07:15.034Z,96161.78
2023-12-13T02:09:42.554Z,96154.47
2023-12-13T02:12:11.509Z,96148.13
2023-12-13T02:14:39.103Z,96156.72
2023-12-13T02:17:06.639Z,96158.63
2023-12-13T02:19:37.185Z,96157.81
2023-12-13T02:22:08.380Z,96158.97
2023-12-13T02:24:40.429Z,96151.16
2023-12-13T02:27:08.071Z,96146.56
2023-12-13T02:29:35.784Z,96149.59
2023-12-13T02:32:03.426Z,96148.78
2023-12-13T02:34:30.721Z,96149.59
2023-12-13T02:36:58.281Z,96143.38
2023-12-13T02:39:27.618Z,96146.56
2023-12-13T02:41:55.391Z,96138.44
2023-12-13T02:44:22.980Z,96136.53
2023-12-13T02:46:50.922Z,96131.91
2023-12-13T02:49:18.537Z,96137.31
2023-12-13T02:51:46.191Z,96120.28
2023-12-13T02:54:13.538Z,96114.13
2023-12-13T02:56:42.455Z,96111.41
2023-12-13T02:59:10.040Z,96104.88
2023-12-13T03:01:37.478Z,96107.09
2023-12-13T03:04:05.715Z,96106.31
2023-12-13T03:06:33.204Z,96101.69
2023-12-13T03:09:00.666Z,96100.91
2023-12-13T03:11:29.111Z,96101.69
2023-12-13T03:13:58.044Z,96098.22
2023-12-13T03:16:25.966Z,96100.44
2023-12-13T03:18:53.541Z,96098.53
2023-12-13T03:21:20.931Z,96097.75
2023-12-13T03:23:48.398Z,96091.06
2023-12-13T03:26:15.808Z,96086.91
2023-12-13T03:28:43.279Z,96082.63
2023-12-13T03:31:12.351Z,96077.56
2023-12-13T03:33:39.940Z,96081.38
2023-12-13T03:36:14.073Z,96077.13
2023-12-13T03:38:41.581Z,96074.41
2023-12-13T03:41:09.069Z,96078.22
2023-12-13T03:43:36.833Z,96065.50
2023-12-13T03:46:05.627Z,96062.00
2023-12-13T03:48:34.585Z,96064.38
2023-12-13T03:51:02.892Z,96061.34
2023-12-13T03:53:30.558Z,96061.34
2023-12-13T03:55:58.369Z,96063.25
2023-12-13T03:58:25.912Z,96072.16
2023-12-13T04:00:53.430Z,96066.75
2023-12-13T04:03:20.995Z,96044.06
2023-12-13T04:05:49.937Z,96047.81
2023-12-13T04:08:17.456Z,96063.25
2023-12-13T04:10:44.989Z,96065.94
2023-12-13T04:13:12.427Z,96073.28
2023-12-13T04:15:40.435Z,96069.00
2023-12-13T04:18:07.949Z,96071.34
2023-12-13T04:20:35.451Z,96069.00
2023-12-13T04:23:04.315Z,96063.59
2023-12-13T04:25:32.186Z,96069.00
2023-12-13T04:27:59.700Z,96064.69
2023-12-13T04:30:27.138Z,96062.00
2023-12-13T04:32:54.759Z,96069.31
2023-12-13T04:35:22.253Z,96077.44
2023-12-13T04:37:50.389Z,96084.75
2023-12-13T04:40:19.367Z,96069.66
2023-12-13T04:42:46.850Z,96077.75
2023-12-13T04:45:14.837Z,96080.47
2023-12-13T04:47:42.352Z,96082.69
2023-12-13T04:50:10.878Z,96081.13
2023-12-13T04:52:38.503Z,96088.41
2023-12-13T04:55:06.500Z,96083.81
2023-12-13T04:57:35.649Z,96073.00
2023-12-13T05:00:06.489Z,96066.47
2023-12-13T05:02:34.008Z,96069.66
2023-12-13T05:05:01.631Z,96058.84
2023-12-13T05:07:29.824Z,96056.59
2023-12-13T05:09:57.366Z,96052.31
2023-12-13T05:12:24.976Z,96048.78
2023-12-13T05:14:53.720Z,96043.38
2023-12-13T05:17:21.297Z,96040.69
2023-12-13T05:19:48.706Z,96030.69
2023-12-13T05:22:16.212Z,96029.53
2023-12-13T05:24:43.911Z,96035.28
2023-12-13T05:27:11.411Z,96037.97
2023-12-13T05:29:38.942Z,96039.91
2023-12-13T05:32:07.981Z,96042.94
2023-12-13T05:34:35.508Z,96037.97
2023-12-13T05:37:06.954Z,96026.72
2023-12-13T05:39:34.687Z,96026.41
2023-12-13T05:42:02.528Z,96027.16
2023-12-13T05:44:30.650Z,96026.41
2023-12-13T05:46:58.267Z,96034.50
2023-12-13T05:49:27.340Z,96024.03
2023-12-13T05:51:54.865Z,96035.28
2023-12-13T05:54:22.310Z,96027.50
2023-12-13T05:56:49.930Z,96034.84
2023-12-13T05:59:17.481Z,96028.63
2023-12-13T06:01:44.928Z,96029.75
2023-12-13T06:04:12.618Z,96032.47
2023-12-13T06:06:45.863Z,96030.88
2023-12-13T06:09:13.812Z,96030.06
2023-12-13T06:11:41.203Z,96016.56
2023-12-13T06:14:08.877Z,96007.81
2023-12-13T06:16:36.522Z,96007.91
2023-12-13T06:19:04.046Z,95996.00
2023-12-13T06:21:32.319Z,96004.13
2023-12-13T06:24:02.261Z,95999.47
2023-12-13T06:26:29.730Z,96014.56
2023-12-13T06:28:57.141Z,96017.28
2023-12-13T06:31:24.588Z,96005.69
2023-12-13T06:33:52.127Z,96005.69
2023-12-13T06:36:20.929Z,96009.53
2023-12-13T06:38:48.525Z,96013.31
2023-12-13T06:41:17.130Z,96015.25
2023-12-13T06:43:44.661Z,96014.44
2023-12-13T06:46:12.025Z,96010.19
2023-12-13T06:48:39.747Z,96009.84
2023-12-13T06:51:08.698Z,96008.56
2023-12-13T06:53:38.667Z,96007.16
2023-12-13T06:56:07.179Z,96006.34
2023-12-13T06:58:36.773Z,96005.03
2023-12-13T07:01:05.394Z,96003.69
2023-12-13T07:03:32.918Z,96001.47
2023-12-13T07:06:00.317Z,96001.56
2023-12-13T07:08:27.805Z,95996.50
2023-12-13T07:10:55.345Z,96002.81
2023-12-13T07:13:22.617Z,95998.53
2023-12-13T07:15:51.528Z,96006.00
2023-12-13T07:18:22.022Z,95997.88
2023-12-13T07:20:49.502Z,95999.03
2023-12-13T07:23:16.894Z,95999.47
2023-12-13T07:25:44.606Z,95995.63
2023-12-13T07:28:14.768Z,96002.16
2023-12-13T07:30:48.252Z,96004.22
2023-12-13T07:33:21.442Z,96011.19
2023-12-13T07:35:49.105Z,96004.69
2023-12-13T07:38:16.681Z,95997.75
2023-12-13T07:40:47.841Z,95991.09
2023-12-13T07:43:15.544Z,95984.38
2023-12-13T07:45:43.551Z,95988.25
2023-12-13T07:48:21.404Z,95979.63
2023-12-13T07:50:56.630Z,95970.56
2023-12-13T07:53:24.249Z,95970.13
2023-12-13T07:55:51.928Z,95953.22
2023-12-13T07:58:19.795Z,95958.41
2023-12-13T08:00:48.236Z,95956.72
2023-12-13T08:03:15.894Z,95959.97
2023-12-13T08:05:43.750Z,95962.03
2023-12-13T08:08:12.745Z,95959.81
2023-12-13T08:10:42.024Z,95962.41
2023-12-13T08:13:09.623Z,95968.25
2023-12-13T08:15:37.145Z,95963.25
2023-12-13T08:18:04.670Z,95961.56
2023-12-13T08:20:32.145Z,95961.78
2023-12-13T08:22:59.858Z,95968.19
2023-12-13T08:25:28.711Z,95972.41
2023-12-13T08:27:56.258Z,95967.41
2023-12-13T08:30:23.798Z,95978.53
2023-12-13T08:32:51.271Z,95970.28
2023-12-13T08:35:18.749Z,95967.91
2023-12-13T08:37:46.161Z,95962.47
2023-12-13T08:40:14.185Z,95952.59
2023-12-13T08:42:45.678Z,95962.97
2023-12-13T08:45:14.032Z,95960.91
2023-12-13T08:47:41.678Z,95966.63
2023-12-13T08:50:09.734Z,95963.31
2023-12-13T08:52:37.310Z,95962.34
2023-12-13T08:55:05.233Z,95967.66
2023-12-13T08:57:33.152Z,95966.63
2023-12-13T09:00:08.908Z,95964.22
2023-12-13T09:02:38.606Z,95958.19
2023-12-13T09:05:07.325Z,95971.44
2023-12-13T09:07:35.174Z,95970.22
2023-12-13T09:10:04.532Z,95968.94
2023-12-13T09:12:32.114Z,95962.59
2023-12-13T09:14:59.960Z,95960.13
2023-12-13T09:17:29.105Z,95964.72
2023-12-13T09:19:56.868Z,95968.19
2023-12-13T09:22:24.399Z,95967.63
2023-12-13T09:24:51.859Z,95972.06
2023-12-13T09:27:19.156Z,95964.22
2023-12-13T09:29:46.624Z,95970.78
2023-12-13T09:32:14.743Z,95969.41
2023-12-13T09:34:43.829Z,95960.03
2023-12-13T09:37:11.247Z,95968.44
2023-12-13T09:39:38.517Z,95974.38
2023-12-13T09:42:06.082Z,95974.38
2023-12-13T09:44:37.073Z,95981.56
2023-12-13T09:47:05.174Z,95979.59
2023-12-13T09:49:38.505Z,95981.66
2023-12-13T09:52:09.943Z,95988.91
2023-12-13T09:54:42.190Z,95990.28
2023-12-13T09:57:09.610Z,95993.13
2023-12-13T09:59:37.181Z,95991.56
2023-12-13T10:02:09.873Z,95989.13
2023-12-13T10:04:38.119Z,95988.78
2023-12-13T10:07:06.852Z,95978.69
2023-12-13T10:09:35.710Z,95977.97
2023-12-13T10:12:05.925Z,95979.88
2023-12-13T10:14:35.290Z,95986.63
2023-12-13T10:17:11.955Z,95973.88
2023-12-13T10:19:45.590Z,95977.97
2023-12-13T10:22:13.086Z,95979.97
2023-12-13T10:24:43.082Z,95969.78
2023-12-13T10:27:11.159Z,95976.97
2023-12-13T10:29:38.761Z,95960.75
2023-12-13T10:32:06.641Z,95970.75
2023-12-13T10:34:34.152Z,95965.00
2023-12-13T10:37:02.163Z,95976.34
2023-12-13T10:39:31.429Z,95977.56
2023-12-13T10:42:01.783Z,95970.19
2023-12-13T10:44:35.386Z,95971.22
2023-12-13T10:47:09.004Z,95970.41
2023-12-13T10:49:36.816Z,95962.81
2023-12-13T10:52:07.092Z,95961.03
2023-12-13T10:54:36.447Z,95968.78
2023-12-13T10:57:05.490Z,95958.31
2023-12-13T10:59:34.309Z,95960.09
2023-12-13T11:02:03.468Z,95963.50
2023-12-13T11:04:31.307Z,95961.63
2023-12-13T11:07:06.524Z,95958.47
2023-12-13T11:09:49.962Z,95957.88
2023-12-13T11:12:22.553Z,95959.19
2023-12-13T11:14:51.234Z,95949.66
2023-12-13T11:17:19.903Z,95949.44
2023-12-13T11:19:48.219Z,95937.44
2023-12-13T11:22:15.733Z,95957.31
2023-12-13T11:24:43.393Z,95950.59
2023-12-13T11:27:13.892Z,95953.31
2023-12-13T11:29:46.947Z,95951.88
2023-12-13T11:32:16.511Z,95955.75
2023-12-13T11:34:49.395Z,95953.72
2023-12-13T11:37:17.342Z,95950.75
2023-12-13T11:39:45.710Z,95955.56
2023-12-13T11:42:15.428Z,95946.44
2023-12-13T11:44:43.816Z,95947.91
2023-12-13T11:47:14.228Z,95947.94
2023-12-13T11:49:43.525Z,95940.50
2023-12-13T11:52:11.767Z,95945.44
2023-12-13T11:54:40.481Z,95944.88
2023-12-13T11:57:16.068Z,95941.84
2023-12-13T11:59:44.130Z,95925.38
2023-12-13T12:02:17.775Z,95925.72
2023-12-13T12:04:45.258Z,95919.06
2023-12-13T12:07:14.670Z,95933.28
2023-12-13T12:09:42.033Z,95919.50
2023-12-13T12:12:10.319Z,95916.09
2023-12-13T12:14:37.763Z,95915.94
2023-12-13T12:17:06.251Z,95921.03
2023-12-13T12:19:35.979Z,95919.50
2023-12-13T12:22:04.328Z,95914.94
2023-12-13T12:24:31.789Z,95916.84
2023-12-13T12:27:07.516Z,95908.47
2023-12-13T12:29:34.924Z,95906.31
2023-12-13T12:32:02.209Z,95907.03
2023-12-13T12:34:29.858Z,95903.09
2023-12-13T12:36:59.517Z,95901.72
2023-12-13T12:39:27.024Z,95896.44
2023-12-13T12:41:54.356Z,95891.28
2023-12-13T12:44:21.866Z,95882.53
2023-12-13T12:46:49.304Z,95880.63
2023-12-13T12:49:16.837Z,95882.63
2023-12-13T12:51:44.887Z,95880.56
2023-12-13T12:54:13.771Z,95884.06
2023-12-13T12:56:41.254Z,95876.59
2023-12-13T12:59:15.396Z,95885.16
2023-12-13T13:01:44.090Z,95883.13
2023-12-13T13:04:14.634Z,95886.97
2023-12-13T13:06:45.569Z,95881.09
2023-12-13T13:09:14.974Z,95882.44
2023-12-13T13:11:43.869Z,95881.53
2023-12-13T13:14:11.576Z,95886.28
2023-12-13T13:16:39.312Z,95892.06
2023-12-13T13:19:07.169Z,95880.91
2023-12-13T13:21:34.935Z,95887.44
2023-12-13T13:24:08.065Z,95887.47
2023-12-13T13:26:38.177Z,95894.69
2023-12-13T13:29:06.079Z,95891.84
2023-12-13T13:31:34.101Z,95892.63
2023-12-13T13:34:01.714Z,95891.72
2023-12-13T13:36:29.214Z,95890.16
2023-12-13T13:38:56.464Z,95881.53
2023-12-13T13:41:24.993Z,95879.34
2023-12-13T13:43:53.861Z,95880.66
2023-12-13T13:46:21.348Z,95880.13
2023-12-13T13:48:48.711Z,95872.50
2023-12-13T13:51:16.076Z,95873.38
2023-12-13T13:53:43.594Z,95865.41
2023-12-13T13:56:11.970Z,95870.97
2023-12-13T13:58:39.546Z,95874.72
2023-12-13T14:01:08.305Z,95873.78
2023-12-13T14:03:35.793Z,95873.25
2023-12-13T14:06:04.824Z,95879.00
2023-12-13T14:08:33.517Z,95867.97
2023-12-13T14:11:01.002Z,95876.38
2023-12-13T14:13:28.259Z,95878.44
2023-12-13T14:15:55.813Z,95873.97
2023-12-13T14:18:24.727Z,95870.25
2023-12-13T14:20:52.306Z,95880.22
2023-12-13T14:23:19.714Z,95892.50
2023-12-13T14:25:47.339Z,95893.56
2023-12-13T14:28:14.809Z,95900.00
2023-12-13T14:30:42.308Z,95906.09
2023-12-13T14:33:10.220Z,95906.03
2023-12-13T14:35:39.192Z,95912.13
2023-12-13T14:38:06.653Z,95907.28
2023-12-13T14:40:34.504Z,95911.91
2023-12-13T14:43:03.679Z,95909.09
2023-12-13T14:45:33.339Z,95913.25
2023-12-13T14:48:00.835Z,95906.63
2023-12-13T14:50:28.421Z,95905.38
2023-12-13T14:52:57.870Z,95911.13
2023-12-13T14:55:25.413Z,95904.50
2023-12-13T14:57:52.656Z,95906.72
2023-12-13T15:00:20.254Z,95909.00
2023-12-13T15:02:47.572Z,95909.69
2023-12-13T15:05:15.421Z,95918.94
2023-12-13T15:07:44.152Z,95919.63
2023-12-13T15:10:13.606Z,95931.59
2023-12-13T15:12:41.269Z,95935.00
2023-12-13T15:15:09.092Z,95938.84
2023-12-13T15:17:37.425Z,95951.91
2023-12-13T15:20:09.350Z,95948.78
2023-12-13T15:22:37.913Z,95942.84
2023-12-13T15:25:11.833Z,95946.25
2023-12-13T15:27:44.022Z,95947.03
2023-12-13T15:30:12.578Z,95952.31
2023-12-13T15:32:42.473Z,95956.97
2023-12-13T15:35:11.629Z,95960.00
2023-12-13T15:37:39.477Z,95973.09
2023-12-13T15:40:09.954Z,95974.22
2023-12-13T15:42:37.398Z,95985.41
2023-12-13T15:45:08.901Z,95993.84
2023-12-13T15:47:37.871Z,95999.28
2023-12-13T15:50:07.406Z,96014.75
2023-12-13T15:52:38.497Z,96021.63
2023-12-13T15:55:07.238Z,96022.75
2023-12-13T15:57:35.522Z,96028.50
2023-12-13T16:00:03.660Z,96027.25
2023-12-13T16:02:41.168Z,96027.25
2023-12-13T16:05:14.599Z,96031.88
2023-12-13T16:07:44.734Z,96026.81
2023-12-13T16:10:14.298Z,96034.47
2023-12-13T16:12:42.529Z,96016.63
2023-12-13T16:15:10.060Z,96034.03
2023-12-13T16:17:37.836Z,96033.56
2023-12-13T16:20:11.338Z,96037.16
2023-12-13T16:22:39.055Z,96040.34
2023-12-13T16:25:07.633Z,96045.44
2023-12-13T16:27:35.340Z,96047.09
2023-12-13T16:30:02.962Z,96040.38
2023-12-13T16:32:31.130Z,96049.63
2023-12-13T16:34:58.916Z,96058.84
2023-12-13T16:37:34.422Z,96051.88
2023-12-13T16:40:01.977Z,96062.69
2023-12-13T16:42:29.482Z,96051.88
2023-12-13T16:44:56.924Z,96053.00
2023-12-13T16:47:24.312Z,96046.44
2023-12-13T16:49:51.867Z,96046.44
2023-12-13T16:52:19.181Z,96049.16
2023-12-13T16:54:50.015Z,96046.66
2023-12-13T16:57:17.729Z,96045.28
2023-12-13T16:59:45.452Z,96047.56
2023-12-13T17:02:13.806Z,96055.47
2023-12-13T17:04:41.475Z,96052.97
2023-12-13T17:07:08.992Z,96053.31
2023-12-13T17:09:36.520Z,96057.25
2023-12-13T17:12:05.589Z,96055.00
2023-12-13T17:14:33.515Z,96059.75
2023-12-13T17:17:03.771Z,96063.25
2023-12-13T17:19:31.364Z,96063.34
2023-12-13T17:21:58.941Z,96065.28
2023-12-13T17:24:32.402Z,96066.88
2023-12-13T17:27:00.064Z,96069.44
2023-12-13T17:29:37.383Z,96075.78
2023-12-13T17:32:06.096Z,96083.91
2023-12-13T17:34:34.971Z,96086.63
2023-12-13T17:37:02.614Z,96097.47
2023-12-13T17:39:30.189Z,96099.03
2023-12-13T17:41:57.854Z,96100.59
2023-12-13T17:44:27.298Z,96103.66
2023-12-13T17:46:57.980Z,96109.06
2023-12-13T17:49:25.746Z,96116.84
2023-12-13T17:51:53.273Z,96116.84
2023-12-13T17:54:20.774Z,96113.00
2023-12-13T17:56:48.201Z,96120.38
2023-12-13T17:59:15.893Z,96127.69
2023-12-13T18:01:45.670Z,96127.34
2023-12-13T18:04:14.668Z,96125.91
2023-12-13T18:06:42.221Z,96127.03
2023-12-13T18:09:10.673Z,96125.13
2023-12-13T18:11:38.243Z,96123.84
2023-12-13T18:14:05.815Z,96134.03
2023-12-13T18:16:33.352Z,96126.22
2023-12-13T18:19:00.904Z,96129.25
2023-12-13T18:21:29.549Z,96136.94
2023-12-13T18:23:57.194Z,96142.38
2023-12-13T18:26:24.423Z,96138.41
2023-12-13T18:28:51.918Z,96141.31
2023-12-13T18:31:19.487Z,96143.25
2023-12-13T18:33:47.163Z,96134.97
2023-12-13T18:36:14.541Z,96137.25
2023-12-13T18:38:43.346Z,96141.84
2023-12-13T18:41:11.078Z,96149.50
2023-12-13T18:43:38.944Z,96146.34
2023-12-13T18:46:06.750Z,96151.75
2023-12-13T18:48:34.358Z,96154.81
2023-12-13T18:51:02.934Z,96163.25
2023-12-13T18:53:32.307Z,96166.28
2023-12-13T18:56:02.027Z,96167.09
2023-12-13T18:58:31.132Z,96164.38
2023-12-13T19:00:58.684Z,96167.75
2023-12-13T19:03:26.126Z,96167.75
2023-12-13T19:05:53.977Z,96171.59
2023-12-13T19:08:21.491Z,96172.34
2023-12-13T19:10:48.918Z,96165.38
2023-12-13T19:13:17.840Z,96179.22
2023-12-13T19:15:45.359Z,96188.47
2023-12-13T19:18:12.821Z,96188.47
2023-12-13T19:20:40.331Z,96179.22
2023-12-13T19:23:07.963Z,96189.63
2023-12-13T19:25:35.695Z,96186.56
2023-12-13T19:28:04.100Z,96190.72
2023-12-13T19:30:32.969Z,96189.94
2023-12-13T19:33:00.603Z,96191.84
2023-12-13T19:35:27.984Z,96188.81
2023-12-13T19:37:55.575Z,96196.13
2023-12-13T19:40:23.094Z,96187.56
2023-12-13T19:42:51.809Z,96190.25
2023-12-13T19:45:19.461Z,96197.59
2023-12-13T19:47:51.581Z,96196.34
2023-12-13T19:50:19.265Z,96200.75
2023-12-13T19:52:46.776Z,96206.13
2023-12-13T19:55:14.469Z,96210.53
2023-12-13T19:57:42.002Z,96217.53
2023-12-13T20:00:10.364Z,96218.31
2023-12-13T20:02:41.057Z,96224.88
2023-12-13T20:05:10.005Z,96224.88
2023-12-13T20:07:37.927Z,96225.66
2023-12-13T20:10:06.476Z,96232.97
2023-12-13T20:12:34.065Z,96236.13
2023-12-13T20:15:01.516Z,96233.91
2023-12-13T20:17:29.309Z,96243.94
2023-12-13T20:19:56.797Z,96248.09
2023-12-13T20:22:26.081Z,96257.34
2023-12-13T20:24:53.915Z,96254.66
2023-12-13T20:27:21.535Z,96257.81
2023-12-13T20:29:51.608Z,96263.69
2023-12-13T20:32:19.241Z,96271.00
2023-12-13T20:34:46.694Z,96265.59
2023-12-13T20:37:14.337Z,96265.94
2023-12-13T20:39:43.204Z,96269.44
2023-12-13T20:42:11.774Z,96272.47
2023-12-13T20:44:39.308Z,96275.66
2023-12-13T20:47:06.810Z,96284.75
2023-12-13T20:49:34.222Z,96288.00
2023-12-13T20:52:01.743Z,96282.91
2023-12-13T20:54:29.583Z,96289.75
2023-12-13T20:56:58.457Z,96295.84
2023-12-13T20:59:25.964Z,96301.88
2023-12-13T21:01:53.520Z,96309.56
2023-12-13T21:04:20.896Z,96312.59
2023-12-13T21:06:48.439Z,96300.84
2023-12-13T21:09:15.847Z,96303.88
2023-12-13T21:11:43.248Z,96307.66
2023-12-13T21:14:12.014Z,96301.81
2023-12-13T21:16:41.210Z,96312.47
2023-12-13T21:19:09.820Z,96321.38
2023-12-13T21:21:37.352Z,96319.81
2023-12-13T21:24:10.460Z,96320.94
2023-12-13T21:26:44.435Z,96325.53
2023-12-13T21:29:13.177Z,96329.66
2023-12-13T21:31:42.535Z,96330.00
2023-12-13T21:34:10.336Z,96338.09
2023-12-13T21:36:37.862Z,96334.16
2023-12-13T21:39:05.620Z,96342.72
2023-12-13T21:41:33.008Z,96343.84
2023-12-13T21:44:00.509Z,96351.16
2023-12-13T21:46:29.298Z,96356.88
2023-12-13T21:48:56.801Z,96355.31
2023-12-13T21:51:24.314Z,96353.72
2023-12-13T21:53:52.006Z,96364.56
2023-12-13T21:56:19.660Z,96361.84
2023-12-13T21:58:47.211Z,96371.09
2023-12-13T22:01:16.559Z,96374.88
2023-12-13T22:03:45.476Z,96380.28
2023-12-13T22:06:12.966Z,96384.94
2023-12-13T22:08:40.396Z,96398.78
2023-12-13T22:11:10.794Z,96392.56
2023-12-13T22:13:38.543Z,96401.81
2023-12-13T22:16:06.227Z,96402.94
2023-12-13T22:18:40.824Z,96412.63
2023-12-13T22:21:10.394Z,96409.13
2023-12-13T22:23:47.552Z,96414.84
2023-12-13T22:26:20.455Z,96418.34
2023-12-13T22:28:47.831Z,96410.56
2023-12-13T22:31:15.299Z,96403.56
2023-12-13T22:33:43.518Z,96414.38
2023-12-13T22:36:12.487Z,96420.56
2023-12-13T22:38:39.927Z,96420.13
2023-12-13T22:41:07.491Z,96424.72
2023-12-13T22:43:34.914Z,96429.34
2023-12-13T22:46:02.365Z,96432.06
2023-12-13T22:48:29.764Z,96431.56
2023-12-13T22:50:57.320Z,96431.56
2023-12-13T22:53:25.969Z,96440.00
2023-12-13T22:55:53.397Z,96446.22
2023-12-13T22:58:20.846Z,96439.19
2023-12-13T23:00:48.449Z,96448.13
2023-12-13T23:03:16.647Z,96450.03
2023-12-13T23:05:44.227Z,96450.03
2023-12-13T23:08:11.727Z,96457.38
2023-12-13T23:10:40.447Z,96459.25
2023-12-13T23:13:07.851Z,96461.19
2023-12-13T23:15:35.518Z,96463.91
2023-12-13T23:18:02.914Z,96460.38
2023-12-13T23:20:30.433Z,96466.91
2023-12-13T23:22:58.063Z,96476.13
2023-12-13T23:25:25.574Z,96474.22
2023-12-13T23:27:54.473Z,96481.53
2023-12-13T23:30:21.948Z,96478.81
2023-12-13T23:32:51.032Z,96480.44
2023-12-13T23:35:18.609Z,96497.75
2023-12-13T23:37:46.011Z,96497.00
2023-12-13T23:40:13.665Z,96500.47
2023-12-13T23:42:41.096Z,96505.41
2023-12-13T23:45:10.781Z,96511.63
2023-12-13T23:47:38.244Z,96524.34
2023-12-13T23:50:06.868Z,96514.66
2023-12-13T23:52:34.556Z,96526.25
2023-12-13T23:55:02.220Z,96526.25
2023-12-13T23:57:29.661Z,96527.69
2023-12-13T23:59:57.155Z,96533.09
